Lewes Beach, Delaware
Current Conditions -  °F | °C
As of 9:54 PM on Saturday 24 Jan 2015 (Local Time) from KGED Reporting Station
Scattered Clouds Scattered Clouds  
Wind Chill: 30°   Ceiling: Unl
Heat Index: 36°   Visibility: 10mi
Dew Point: 28°   Wind: 7mph
Humidity: 73%   Direction: 250°WSW
Pressure: 29.61"   Gusts: NA
Location:  38.7339°N, 75.1733°W
Report Text: KGED 250254Z AUTO 25006KT 10SM SCT075 02/M02 A2961 RMK AO2 SLP026 T00221022 53028
Loading
Personal Weather Stations






























Interactive Weather Map New forecast layout! Learn more

10-Day Weather Forecast

Advertisements
Track Severe Weather on mobile